createdAt,value
2018-02-27T00:02:18.784Z,221.65
2018-02-27T00:04:46.144Z,233.10
2018-02-27T00:07:12.783Z,161.68
2018-02-27T00:09:39.470Z,176.40
2018-02-27T00:12:06.087Z,243.37
2018-02-27T00:14:32.678Z,284.37
2018-02-27T00:16:59.251Z,166.45
2018-02-27T00:19:26.645Z,187.32
2018-02-27T00:21:53.249Z,185.25
2018-02-27T00:24:20.574Z,192.37
2018-02-27T00:26:47.133Z,192.95
2018-02-27T00:29:14.441Z,292.23
2018-02-27T00:31:41.815Z,326.48
2018-02-27T00:34:08.382Z,254.82
2018-02-27T00:36:34.922Z,106.25
2018-02-27T00:39:01.563Z,38.63
2018-02-27T00:41:28.262Z,34.60
2018-02-27T00:43:54.816Z,66.00
2018-02-27T00:46:22.101Z,80.35
2018-02-27T00:48:48.716Z,145.07
2018-02-27T00:51:15.242Z,114.22
2018-02-27T00:53:42.544Z,157.75
2018-02-27T00:56:09.251Z,14.80
2018-02-27T00:58:35.821Z,72.50
2018-02-27T01:01:02.434Z,108.12
2018-02-27T01:03:29.054Z,21.02
2018-02-27T01:05:55.625Z,41.92
2018-02-27T01:08:22.206Z,29.17
2018-02-27T01:10:48.777Z,34.03
2018-02-27T01:13:15.317Z,95.03
2018-02-27T01:15:41.906Z,115.53
2018-02-27T01:18:08.479Z,81.37
2018-02-27T01:20:35.773Z,154.10
2018-02-27T01:23:02.561Z,184.30
2018-02-27T01:25:29.193Z,142.87
2018-02-27T01:27:56.518Z,109.32
2018-02-27T01:30:23.074Z,114.95
2018-02-27T01:32:49.770Z,228.80
2018-02-27T01:35:16.296Z,91.90
2018-02-27T01:37:42.870Z,128.62
2018-02-27T01:40:09.417Z,143.50
2018-02-27T01:42:35.953Z,139.32
2018-02-27T01:45:03.286Z,145.45
2018-02-27T01:47:29.831Z,136.90
2018-02-27T01:49:57.130Z,160.23
2018-02-27T01:52:23.713Z,116.57
2018-02-27T01:54:50.314Z,85.75
2018-02-27T01:57:16.901Z,84.57
2018-02-27T01:59:43.493Z,58.50
2018-02-27T02:02:10.050Z,56.58
2018-02-27T02:04:36.655Z,91.10
2018-02-27T02:07:03.209Z,54.08
2018-02-27T02:09:29.814Z,34.60
2018-02-27T02:11:56.418Z,43.47
2018-02-27T02:14:23.933Z,45.42
2018-02-27T02:16:50.543Z,54.17
2018-02-27T02:19:17.907Z,48.72
2018-02-27T02:21:44.494Z,132.40
2018-02-27T02:24:11.076Z,98.00
2018-02-27T02:26:37.675Z,144.68
2018-02-27T02:29:04.251Z,145.85
2018-02-27T02:31:30.818Z,137.98
2018-02-27T02:33:57.384Z,99.40
2018-02-27T02:36:23.954Z,99.78
2018-02-27T02:38:51.258Z,117.30
2018-02-27T02:41:17.818Z,103.32
2018-02-27T02:43:45.117Z,116.55
2018-02-27T02:46:11.734Z,109.65
2018-02-27T02:48:38.294Z,86.93
2018-02-27T02:51:04.870Z,122.72
2018-02-27T02:53:32.191Z,115.47
2018-02-27T02:55:58.781Z,121.30
2018-02-27T02:58:26.072Z,114.68
2018-02-27T03:00:52.703Z,108.43
2018-02-27T03:03:19.298Z,110.45
2018-02-27T03:05:46.606Z,56.17
2018-02-27T03:08:13.177Z,77.03
2018-02-27T03:10:40.499Z,85.25
2018-02-27T03:13:07.062Z,85.62
2018-02-27T03:15:33.650Z,160.02
2018-02-27T03:18:00.235Z,86.97
2018-02-27T03:20:26.791Z,62.53
2018-02-27T03:22:53.332Z,75.15
2018-02-27T03:25:19.927Z,71.40
2018-02-27T03:27:46.478Z,86.45
2018-02-27T03:30:13.055Z,49.30
2018-02-27T03:32:40.334Z,62.25
2018-02-27T03:35:06.938Z,110.18
2018-02-27T03:37:34.240Z,92.40
2018-02-27T03:40:00.798Z,85.80
2018-02-27T03:42:27.415Z,105.97
2018-02-27T03:44:53.978Z,99.00
2018-02-27T03:47:20.526Z,98.15
2018-02-27T03:49:47.889Z,99.90
2018-02-27T03:52:14.446Z,77.20
2018-02-27T03:54:41.028Z,99.05
2018-02-27T03:57:07.610Z,99.25
2018-02-27T03:59:34.145Z,73.45
2018-02-27T04:02:00.723Z,81.20
2018-02-27T04:04:27.287Z,106.72
2018-02-27T04:06:53.862Z,113.22
2018-02-27T04:09:20.386Z,109.32
2018-02-27T04:11:47.782Z,122.15
2018-02-27T04:14:14.366Z,96.90
2018-02-27T04:16:41.709Z,122.60
2018-02-27T04:19:08.325Z,135.20
2018-02-27T04:21:34.935Z,134.68
2018-02-27T04:24:01.576Z,142.05
2018-02-27T04:26:28.162Z,157.10
2018-02-27T04:28:55.443Z,155.45
2018-02-27T04:31:21.998Z,159.37
2018-02-27T04:33:48.594Z,158.57
2018-02-27T04:36:15.174Z,11.95
2018-02-27T04:38:41.742Z,70.00
2018-02-27T04:41:08.317Z,89.15
2018-02-27T04:43:34.859Z,90.93
2018-02-27T04:46:01.504Z,114.05
2018-02-27T04:48:28.058Z,124.12
2018-02-27T04:50:54.652Z,97.75
2018-02-27T04:53:21.238Z,127.65
2018-02-27T04:55:48.551Z,163.20
2018-02-27T04:58:15.149Z,126.80
2018-02-27T05:00:41.695Z,193.80
2018-02-27T05:03:09.068Z,190.32
2018-02-27T05:05:36.449Z,155.85
2018-02-27T05:08:03.037Z,113.12
2018-02-27T05:10:29.616Z,70.75
2018-02-27T05:12:56.174Z,101.47
2018-02-27T05:15:22.740Z,167.62
2018-02-27T05:17:49.286Z,78.85
2018-02-27T05:20:15.850Z,130.15
2018-02-27T05:22:42.411Z,186.73
2018-02-27T05:25:08.999Z,94.57
2018-02-27T05:27:36.322Z,95.70
2018-02-27T05:30:02.927Z,108.07
2018-02-27T05:32:29.594Z,106.75
2018-02-27T05:34:56.165Z,119.40
2018-02-27T05:37:23.555Z,100.05
2018-02-27T05:39:50.106Z,115.88
2018-02-27T05:42:17.310Z,97.43
2018-02-27T05:44:44.614Z,95.62
2018-02-27T05:47:11.183Z,110.95
2018-02-27T05:49:37.739Z,92.88
2018-02-27T05:52:05.054Z,101.78
2018-02-27T05:54:31.691Z,90.43
2018-02-27T05:56:58.328Z,106.43
2018-02-27T05:59:25.000Z,69.45
2018-02-27T06:01:52.303Z,99.47
2018-02-27T06:04:19.126Z,106.00
2018-02-27T06:06:45.690Z,120.00
2018-02-27T06:09:12.262Z,147.15
2018-02-27T06:11:38.872Z,120.30
2018-02-27T06:14:05.413Z,142.25
2018-02-27T06:16:31.998Z,142.82
2018-02-27T06:18:58.552Z,106.93
2018-02-27T06:21:25.154Z,143.32
2018-02-27T06:23:52.433Z,111.95
2018-02-27T06:26:19.035Z,119.82
2018-02-27T06:28:45.626Z,131.05
2018-02-27T06:31:12.194Z,152.55
2018-02-27T06:33:38.786Z,151.25
2018-02-27T06:36:05.331Z,127.53
2018-02-27T06:38:32.674Z,70.12
2018-02-27T06:40:59.234Z,103.20
2018-02-27T06:43:26.516Z,145.32
2018-02-27T06:45:53.126Z,140.05
2018-02-27T06:48:19.689Z,104.35
2018-02-27T06:50:47.164Z,68.28
2018-02-27T06:53:13.745Z,114.12
2018-02-27T06:55:40.586Z,112.45
2018-02-27T06:58:07.139Z,118.10
2018-02-27T07:00:33.699Z,174.02
2018-02-27T07:03:00.270Z,125.93
2018-02-27T07:05:26.832Z,149.07
2018-02-27T07:07:53.434Z,212.15
2018-02-27T07:10:20.002Z,142.30
2018-02-27T07:12:46.943Z,109.12
2018-02-27T07:15:14.302Z,169.25
2018-02-27T07:17:40.910Z,163.18
2018-02-27T07:20:07.497Z,253.48
2018-02-27T07:22:34.075Z,90.20
2018-02-27T07:25:00.653Z,228.20
2018-02-27T07:27:27.203Z,126.10
2018-02-27T07:29:53.781Z,196.27
2018-02-27T07:32:21.111Z,106.47
2018-02-27T07:34:47.694Z,169.32
2018-02-27T07:37:14.267Z,199.80
2018-02-27T07:39:40.937Z,125.60
2018-02-27T07:42:08.227Z,141.65
2018-02-27T07:44:34.835Z,236.45
2018-02-27T07:47:02.148Z,248.02
2018-02-27T07:49:28.730Z,176.93
2018-02-27T07:51:55.707Z,106.97
2018-02-27T07:54:22.357Z,215.87
2018-02-27T07:56:48.982Z,230.80
2018-02-27T07:59:15.658Z,269.10
2018-02-27T08:01:42.975Z,125.40
2018-02-27T08:04:09.646Z,216.60
2018-02-27T08:06:36.204Z,140.43
2018-02-27T08:09:03.593Z,143.27
2018-02-27T08:11:30.187Z,212.98
2018-02-27T08:13:57.077Z,187.10
2018-02-27T08:16:23.666Z,226.57
2018-02-27T08:18:50.210Z,250.23
2018-02-27T08:21:17.566Z,253.48
2018-02-27T08:23:44.173Z,281.75
2018-02-27T08:26:10.770Z,317.55
2018-02-27T08:28:37.336Z,311.48
2018-02-27T08:31:04.669Z,325.75
2018-02-27T08:33:32.110Z,329.92
2018-02-27T08:35:58.662Z,342.52
2018-02-27T08:38:25.210Z,360.27
2018-02-27T08:40:51.790Z,350.30
2018-02-27T08:43:19.186Z,360.17
2018-02-27T08:45:45.759Z,390.55
2018-02-27T08:48:12.334Z,418.08
2018-02-27T08:50:38.898Z,440.00
2018-02-27T08:53:05.738Z,444.30
2018-02-27T08:55:32.278Z,402.85
2018-02-27T08:57:58.955Z,358.05
2018-02-27T09:00:25.535Z,381.83
2018-02-27T09:02:52.138Z,384.65
2018-02-27T09:05:18.678Z,393.30
2018-02-27T09:07:45.974Z,356.98
2018-02-27T09:10:12.554Z,378.92
2018-02-27T09:12:39.179Z,404.75
2018-02-27T09:15:05.817Z,396.65
2018-02-27T09:17:32.386Z,421.73
2018-02-27T09:19:59.702Z,452.20
2018-02-27T09:22:26.281Z,448.37
2018-02-27T09:24:52.878Z,468.30
2018-02-27T09:27:19.501Z,494.13
2018-02-27T09:29:46.083Z,88.25
2018-02-27T09:32:13.314Z,114.95
2018-02-27T09:34:39.824Z,194.85
2018-02-27T09:37:07.351Z,218.05
2018-02-27T09:39:33.856Z,239.82
2018-02-27T09:42:01.124Z,218.23
2018-02-27T09:44:28.373Z,205.52
2018-02-27T09:46:55.644Z,197.07
2018-02-27T09:49:22.168Z,19.35
2018-02-27T09:51:48.772Z,19.20
2018-02-27T09:54:15.284Z,23.25
2018-02-27T09:56:41.808Z,21.15
2018-02-27T09:59:08.312Z,18.08
2018-02-27T10:01:35.152Z,20.62
2018-02-27T10:04:01.737Z,26.50
2018-02-27T10:06:28.272Z,21.42
2018-02-27T10:08:54.839Z,26.15
2018-02-27T10:11:21.351Z,22.05
2018-02-27T10:13:47.862Z,36.42
2018-02-27T10:16:14.430Z,26.05
2018-02-27T10:18:40.940Z,26.12
2018-02-27T10:21:07.740Z,28.98
2018-02-27T10:23:34.260Z,24.67
2018-02-27T10:26:01.513Z,19.62
2018-02-27T10:28:28.801Z,23.42
2018-02-27T10:30:55.324Z,20.23
2018-02-27T10:33:21.838Z,21.55
2018-02-27T10:35:49.111Z,21.70
2018-02-27T10:38:15.619Z,21.25
2018-02-27T10:40:42.234Z,19.35
2018-02-27T10:43:08.751Z,25.40
2018-02-27T10:45:35.385Z,21.80
2018-02-27T10:48:01.974Z,25.10
2018-02-27T10:50:28.487Z,19.67
2018-02-27T10:52:55.046Z,24.40
2018-02-27T10:55:22.293Z,21.80
2018-02-27T10:57:50.254Z,26.40
2018-02-27T11:13:38.040Z,25.05
2018-02-27T11:16:05.323Z,20.73
2018-02-27T11:18:32.580Z,24.10
2018-02-27T11:20:59.114Z,23.15
2018-02-27T11:23:26.412Z,27.27
2018-02-27T11:25:53.001Z,25.37
2018-02-27T11:28:20.275Z,22.30
2018-02-27T11:30:46.793Z,20.83
2018-02-27T11:33:13.324Z,20.08
2018-02-27T11:35:40.648Z,23.62
2018-02-27T11:38:07.296Z,26.12
2018-02-27T11:40:33.860Z,21.50
2018-02-27T11:43:01.156Z,24.75
2018-02-27T11:45:27.673Z,23.27
2018-02-27T11:47:54.220Z,27.60
2018-02-27T11:50:20.767Z,28.90
2018-02-27T11:52:47.337Z,20.55
2018-02-27T11:55:13.850Z,23.23
2018-02-27T11:57:40.398Z,40.83
2018-02-27T12:00:07.032Z,24.90
2018-02-27T12:02:33.605Z,19.67
2018-02-27T12:05:00.856Z,23.70
2018-02-27T12:07:28.201Z,21.50
2018-02-27T12:09:54.744Z,23.15
2018-02-27T12:12:22.032Z,21.80
2018-02-27T12:14:48.544Z,25.45
2018-02-27T12:17:15.868Z,26.05
2018-02-27T12:19:42.411Z,25.35
2018-02-27T12:22:09.666Z,29.08
2018-02-27T12:24:37.731Z,27.65
2018-02-27T12:27:04.996Z,26.52
2018-02-27T12:29:32.239Z,24.23
2018-02-27T12:31:59.049Z,24.67
2018-02-27T12:34:26.304Z,29.75
2018-02-27T12:36:52.869Z,21.15
2018-02-27T12:39:20.152Z,19.45
2018-02-27T12:41:46.693Z,21.85
2018-02-27T12:44:13.227Z,25.12
2018-02-27T12:46:39.742Z,22.65
2018-02-27T12:49:06.274Z,21.80
2018-02-27T12:51:33.548Z,23.10
2018-02-27T12:54:00.118Z,14.02
2018-02-27T12:56:27.423Z,19.35
2018-02-27T12:58:54.713Z,20.48
2018-02-27T13:01:21.219Z,26.17
2018-02-27T13:03:47.737Z,21.30
2018-02-27T13:06:14.292Z,29.20
2018-02-27T13:08:40.850Z,24.65
2018-02-27T13:11:07.408Z,21.92
2018-02-27T13:13:34.689Z,20.35
2018-02-27T13:16:02.275Z,27.30
2018-02-27T13:18:28.782Z,24.05
2018-02-27T13:20:56.082Z,25.25
2018-02-27T13:23:22.739Z,33.47
2018-02-27T13:25:50.039Z,24.67
2018-02-27T13:28:17.259Z,22.23
2018-02-27T13:30:44.098Z,19.55
2018-02-27T13:33:11.377Z,17.98
2018-02-27T13:35:37.967Z,23.05
2018-02-27T13:38:04.523Z,18.60
2018-02-27T13:40:31.045Z,24.35
2018-02-27T13:42:57.636Z,29.80
2018-02-27T13:45:24.157Z,26.73
2018-02-27T13:47:50.692Z,24.90
2018-02-27T13:50:17.214Z,21.30
2018-02-27T13:52:44.488Z,18.85
2018-02-27T13:55:11.724Z,24.37
2018-02-27T13:57:39.007Z,18.65
2018-02-27T14:00:05.508Z,26.30
2018-02-27T14:02:32.794Z,24.83
2018-02-27T14:04:59.356Z,14.35
2018-02-27T14:07:25.899Z,29.58
2018-02-27T14:09:52.440Z,20.10
2018-02-27T14:12:18.956Z,28.48
2018-02-27T14:14:45.512Z,21.60
2018-02-27T14:17:12.044Z,20.73
2018-02-27T14:19:38.532Z,25.75
2018-02-27T14:22:05.087Z,24.45
2018-02-27T14:24:31.624Z,17.75
2018-02-27T14:26:58.140Z,17.77
2018-02-27T14:29:24.694Z,23.10
2018-02-27T14:31:51.263Z,20.55
2018-02-27T14:34:18.616Z,21.83
2018-02-27T14:36:45.191Z,19.27
2018-02-27T14:39:11.709Z,20.17
2018-02-27T14:41:39.004Z,19.48
2018-02-27T14:44:05.613Z,20.52
2018-02-27T14:46:32.488Z,28.05
2018-02-27T14:48:59.013Z,24.02
2018-02-27T14:51:25.544Z,23.17
2018-02-27T14:53:52.069Z,19.55
2018-02-27T14:56:19.372Z,16.52
2018-02-27T14:58:46.638Z,22.40
2018-02-27T15:01:13.964Z,27.90
2018-02-27T15:03:40.502Z,17.92
2018-02-27T15:06:07.777Z,30.02
2018-02-27T15:08:35.104Z,26.20
2018-02-27T15:11:02.453Z,19.05
2018-02-27T15:13:28.965Z,32.53
2018-02-27T15:15:56.241Z,20.23
2018-02-27T15:18:22.745Z,30.05
2018-02-27T15:20:49.266Z,21.35
2018-02-27T15:23:17.518Z,23.95
2018-02-27T15:25:44.120Z,26.45
2018-02-27T15:28:10.688Z,22.27
2018-02-27T15:30:37.957Z,23.35
2018-02-27T15:33:04.940Z,22.52
2018-02-27T15:35:31.441Z,20.35
2018-02-27T15:37:57.953Z,20.62
2018-02-27T15:40:24.488Z,21.37
2018-02-27T15:42:51.735Z,22.67
2018-02-27T15:45:18.271Z,22.98
2018-02-27T15:47:44.812Z,21.48
2018-02-27T15:50:11.313Z,18.98
2018-02-27T15:52:37.893Z,21.77
2018-02-27T15:55:04.457Z,19.92
2018-02-27T15:57:31.730Z,42.50
2018-02-27T15:59:58.304Z,18.27
2018-02-27T16:02:24.822Z,23.77
2018-02-27T16:04:51.476Z,22.65
2018-02-27T16:07:18.105Z,21.62
2018-02-27T16:09:44.712Z,20.98
2018-02-27T16:12:11.260Z,24.55
2018-02-27T16:14:37.782Z,15.57
2018-02-27T16:17:04.298Z,18.00
2018-02-27T16:19:31.146Z,34.50
2018-02-27T16:21:57.747Z,28.45
2018-02-27T16:24:24.279Z,30.00
2018-02-27T16:26:50.907Z,24.65
2018-02-27T16:29:17.473Z,26.98
2018-02-27T16:31:44.774Z,33.70
2018-02-27T16:34:11.277Z,28.95
2018-02-27T16:36:37.853Z,27.42
2018-02-27T16:39:05.176Z,31.70
2018-02-27T16:41:32.232Z,30.83
2018-02-27T16:43:58.784Z,35.22
2018-02-27T16:46:25.283Z,47.00
2018-02-27T16:48:51.833Z,31.27
2018-02-27T16:51:18.571Z,37.90
2018-02-27T16:53:45.123Z,43.40
2018-02-27T16:56:11.652Z,40.83
2018-02-27T16:58:38.177Z,42.78
2018-02-27T17:01:04.739Z,44.90
2018-02-27T17:03:31.645Z,50.42
2018-02-27T17:05:58.934Z,36.58
2018-02-27T17:08:25.490Z,76.37
2018-02-27T17:10:53.070Z,51.92
2018-02-27T17:13:20.433Z,59.78
2018-02-27T17:15:47.776Z,73.97
2018-02-27T17:18:15.093Z,72.65
2018-02-27T17:20:41.729Z,76.57
2018-02-27T17:23:08.322Z,89.13
2018-02-27T17:25:34.966Z,115.43
2018-02-27T17:28:01.560Z,131.45
2018-02-27T17:30:28.946Z,168.75
2018-02-27T17:32:55.577Z,142.52
2018-02-27T17:35:22.935Z,198.23
2018-02-27T17:37:50.330Z,134.15
2018-02-27T17:40:16.899Z,126.38
2018-02-27T17:42:43.454Z,137.52
2018-02-27T17:45:10.780Z,138.23
2018-02-27T17:47:37.389Z,144.30
2018-02-27T17:50:03.992Z,190.43
2018-02-27T17:52:30.631Z,154.32
2018-02-27T17:54:57.332Z,141.05
2018-02-27T17:57:24.314Z,145.65
2018-02-27T17:59:50.886Z,159.40
2018-02-27T18:02:17.624Z,151.45
2018-02-27T18:04:44.226Z,146.90
2018-02-27T18:07:11.592Z,143.35
2018-02-27T18:09:38.175Z,146.48
2018-02-27T18:12:04.758Z,158.73
2018-02-27T18:14:32.074Z,155.50
2018-02-27T18:16:58.697Z,144.57
2018-02-27T18:19:25.303Z,153.60
2018-02-27T18:21:51.895Z,181.25
2018-02-27T18:24:18.492Z,224.37
2018-02-27T18:26:45.103Z,242.02
2018-02-27T18:29:11.767Z,263.27
2018-02-27T18:31:38.329Z,241.15
2018-02-27T18:34:05.641Z,270.75
2018-02-27T18:36:32.230Z,264.60
2018-02-27T18:38:59.295Z,267.92
2018-02-27T18:41:26.636Z,303.45
2018-02-27T18:43:54.120Z,277.20
2018-02-27T18:46:20.595Z,270.15
2018-02-27T18:48:47.189Z,298.67
2018-02-27T18:51:13.806Z,316.95
2018-02-27T18:53:41.242Z,184.82
2018-02-27T18:56:08.044Z,324.25
2018-02-27T18:58:34.658Z,283.52
2018-02-27T19:01:02.016Z,228.43
2018-02-27T19:03:28.726Z,322.67
2018-02-27T19:05:55.332Z,361.05
2018-02-27T19:08:21.934Z,377.33
2018-02-27T19:10:48.555Z,390.00
2018-02-27T19:13:15.902Z,398.92
2018-02-27T19:15:43.237Z,409.40
2018-02-27T19:18:09.798Z,389.75
2018-02-27T19:20:37.106Z,274.05
2018-02-27T19:23:03.743Z,372.73
2018-02-27T19:25:30.340Z,310.92
2018-02-27T19:27:56.949Z,300.70
2018-02-27T19:30:23.511Z,386.80
2018-02-27T19:32:50.110Z,269.02
2018-02-27T19:35:17.427Z,310.42
2018-02-27T19:37:44.059Z,145.70
2018-02-27T19:40:10.754Z,232.18
2018-02-27T19:42:38.124Z,232.68
2018-02-27T19:45:04.791Z,111.95
2018-02-27T19:47:31.372Z,122.95
2018-02-27T19:49:58.748Z,129.52
2018-02-27T19:52:26.051Z,286.65
2018-02-27T19:54:52.693Z,287.02
2018-02-27T19:57:19.267Z,115.88
2018-02-27T19:59:46.634Z,104.82
2018-02-27T20:02:13.248Z,59.28
2018-02-27T20:04:39.829Z,45.10
2018-02-27T20:07:06.445Z,83.03
2018-02-27T20:09:33.045Z,152.07
2018-02-27T20:11:59.655Z,125.22
2018-02-27T20:14:30.297Z,83.95
2018-02-27T20:16:56.911Z,270.52
2018-02-27T20:19:23.539Z,186.98
2018-02-27T20:21:50.198Z,63.53
2018-02-27T20:24:18.550Z,32.67
2018-02-27T20:26:45.152Z,233.57
2018-02-27T20:29:18.787Z,161.93
2018-02-27T20:31:45.393Z,229.48
2018-02-27T20:34:14.412Z,151.45
2018-02-27T20:36:41.040Z,108.28
2018-02-27T20:39:14.598Z,158.95
2018-02-27T20:41:41.185Z,289.87
2018-02-27T20:44:08.497Z,105.63
2018-02-27T20:46:35.172Z,139.05
2018-02-27T20:49:03.456Z,216.93
2018-02-27T20:51:30.126Z,52.35
2018-02-27T20:53:56.735Z,52.88
2018-02-27T20:56:23.303Z,230.75
2018-02-27T20:58:49.839Z,58.08
2018-02-27T21:01:16.544Z,113.65
2018-02-27T21:03:43.112Z,78.00
2018-02-27T21:06:09.762Z,216.20
2018-02-27T21:08:37.058Z,43.28
2018-02-27T21:11:04.392Z,109.10
2018-02-27T21:13:31.013Z,41.85
2018-02-27T21:15:59.079Z,47.62
2018-02-27T21:18:25.830Z,46.40
2018-02-27T21:20:52.448Z,307.70
2018-02-27T21:23:19.028Z,259.58
2018-02-27T21:25:45.582Z,31.55
2018-02-27T21:28:12.189Z,312.77
2018-02-27T21:30:39.534Z,347.60
2018-02-27T21:33:06.150Z,51.72
2018-02-27T21:35:32.715Z,74.85
2018-02-27T21:38:00.071Z,45.78
2018-02-27T21:40:26.635Z,52.85
2018-02-27T21:42:53.931Z,42.75
2018-02-27T21:45:20.527Z,114.62
2018-02-27T21:47:47.094Z,36.00
2018-02-27T21:50:13.677Z,57.28
2018-02-27T21:52:40.244Z,90.43
2018-02-27T21:55:06.832Z,34.90
2018-02-27T21:57:33.409Z,24.45
2018-02-27T22:00:00.773Z,225.05
2018-02-27T22:02:27.403Z,269.37
2018-02-27T22:04:54.014Z,64.20
2018-02-27T22:07:20.599Z,56.37
2018-02-27T22:09:47.153Z,103.43
2018-02-27T22:12:13.738Z,29.63
2018-02-27T22:14:41.042Z,58.78
2018-02-27T22:17:07.607Z,57.85
2018-02-27T22:19:34.933Z,111.55
2018-02-27T22:22:01.487Z,48.97
2018-02-27T22:24:28.832Z,34.05
2018-02-27T22:26:55.412Z,29.20
2018-02-27T22:29:22.750Z,74.82
2018-02-27T22:31:49.633Z,19.40
2018-02-27T22:34:16.234Z,65.68
2018-02-27T22:36:43.570Z,56.50
2018-02-27T22:39:10.244Z,95.45
2018-02-27T22:41:36.833Z,24.12
2018-02-27T22:44:03.430Z,37.47
2018-02-27T22:46:30.066Z,47.40
2018-02-27T22:48:56.636Z,24.20
2018-02-27T22:51:23.244Z,38.58
2018-02-27T22:53:49.790Z,50.88
2018-02-27T22:56:16.386Z,29.35
2018-02-27T22:58:42.992Z,30.62
2018-02-27T23:01:09.610Z,25.30
2018-02-27T23:03:36.235Z,36.72
2018-02-27T23:06:02.893Z,50.08
2018-02-27T23:08:29.571Z,23.73
2018-02-27T23:10:56.903Z,52.25
2018-02-27T23:13:23.505Z,37.20
2018-02-27T23:15:50.103Z,28.90
2018-02-27T23:18:17.441Z,39.33
2018-02-27T23:20:43.997Z,25.50
2018-02-27T23:23:10.657Z,25.67
2018-02-27T23:25:38.355Z,27.50
2018-02-27T23:28:07.653Z,19.40
2018-02-27T23:30:37.438Z,35.47
2018-02-27T23:33:06.699Z,33.20
2018-02-27T23:35:34.463Z,24.20
2018-02-27T23:38:01.751Z,39.33
2018-02-27T23:40:28.327Z,39.75
2018-02-27T23:42:55.021Z,30.95
2018-02-27T23:45:21.614Z,30.55
2018-02-27T23:47:48.157Z,25.70
2018-02-27T23:50:15.501Z,29.35
2018-02-27T23:52:42.051Z,28.83
2018-02-27T23:55:09.440Z,69.45
2018-02-27T23:57:35.993Z,69.10
